createdAt,value
2017-08-01T00:00:11.299Z,88.40
2017-08-01T00:02:39.565Z,88.60
2017-08-01T00:05:07.048Z,88.60
2017-08-01T00:07:34.541Z,88.70
2017-08-01T00:10:02.016Z,88.80
2017-08-01T00:12:29.515Z,89.50
2017-08-01T00:14:56.998Z,90.00
2017-08-01T00:17:24.500Z,90.00
2017-08-01T00:19:51.980Z,90.00
2017-08-01T00:22:19.469Z,90.10
2017-08-01T00:24:46.980Z,90.10
2017-08-01T00:27:14.476Z,90.10
2017-08-01T00:29:41.975Z,90.00
2017-08-01T00:32:09.487Z,90.10
2017-08-01T00:34:36.991Z,90.30
2017-08-01T00:37:04.472Z,90.20
2017-08-01T00:39:31.987Z,90.10
2017-08-01T00:41:59.502Z,89.80
2017-08-01T00:44:27.004Z,89.70
2017-08-01T00:46:54.501Z,89.50
2017-08-01T00:49:21.992Z,89.10
2017-08-01T00:51:49.503Z,88.70
2017-08-01T00:54:17.002Z,88.10
2017-08-01T00:56:44.507Z,88.20
2017-08-01T00:59:12.770Z,88.00
2017-08-01T01:01:40.340Z,87.90
2017-08-01T01:04:08.688Z,87.50
2017-08-01T01:06:36.182Z,88.50
2017-08-01T01:09:03.687Z,88.90
2017-08-01T01:11:31.170Z,89.00
2017-08-01T01:13:58.676Z,89.10
2017-08-01T01:16:26.154Z,88.80
2017-08-01T01:18:53.652Z,88.10
2017-08-01T01:21:21.153Z,87.50
2017-08-01T01:23:48.648Z,87.30
2017-08-01T01:26:16.192Z,87.10
2017-08-01T01:28:43.671Z,86.10
2017-08-01T01:31:11.164Z,85.80
2017-08-01T01:33:38.647Z,86.10
2017-08-01T01:36:06.646Z,87.10
2017-08-01T01:38:34.139Z,88.90
2017-08-01T01:41:01.640Z,90.20
2017-08-01T01:43:29.124Z,92.20
2017-08-01T01:45:56.623Z,92.10
2017-08-01T01:48:24.095Z,91.60
2017-08-01T01:50:51.596Z,91.70
2017-08-01T01:53:19.092Z,91.70
2017-08-01T01:55:46.591Z,91.60
2017-08-01T01:58:14.063Z,92.10
2017-08-01T02:00:41.572Z,92.10
2017-08-01T02:03:09.063Z,92.30
2017-08-01T02:05:36.571Z,92.50
2017-08-01T02:08:04.054Z,92.90
2017-08-01T02:10:31.567Z,93.40
2017-08-01T02:12:59.046Z,93.70
2017-08-01T02:15:26.560Z,93.60
2017-08-01T02:17:54.039Z,94.20
2017-08-01T02:20:21.551Z,94.40
2017-08-01T02:22:49.032Z,94.80
2017-08-01T02:25:17.284Z,95.50
2017-08-01T02:27:44.778Z,95.50
2017-08-01T02:30:12.256Z,96.10
2017-08-01T02:32:39.760Z,96.00
2017-08-01T02:35:07.230Z,95.80
2017-08-01T02:37:34.727Z,96.30
2017-08-01T02:40:02.204Z,96.80
2017-08-01T02:42:29.699Z,97.10
2017-08-01T02:44:57.951Z,97.10
2017-08-01T02:47:25.459Z,97.00
2017-08-01T02:49:52.974Z,97.30
2017-08-01T02:52:20.473Z,97.20
2017-08-01T02:54:47.974Z,97.70
2017-08-01T02:57:15.484Z,98.60
2017-08-01T02:59:42.963Z,98.70
2017-08-01T03:02:10.469Z,98.80
2017-08-01T03:04:37.953Z,98.60
2017-08-01T03:07:05.449Z,98.90
2017-08-01T03:09:32.954Z,98.50
2017-08-01T03:12:00.460Z,98.30
2017-08-01T03:14:27.944Z,98.30
2017-08-01T03:16:55.439Z,97.80
2017-08-01T03:19:22.927Z,97.40
2017-08-01T03:21:50.428Z,97.20
2017-08-01T03:24:17.912Z,96.60
2017-08-01T03:26:45.395Z,96.60
2017-08-01T03:29:12.882Z,96.60
2017-08-01T03:31:40.388Z,96.00
2017-08-01T03:34:07.895Z,95.90
2017-08-01T03:36:35.389Z,95.60
2017-08-01T03:39:02.887Z,95.40
2017-08-01T03:41:31.131Z,95.60
2017-08-01T03:43:58.640Z,95.60
2017-08-01T03:46:26.191Z,96.20
2017-08-01T03:48:53.696Z,95.90
2017-08-01T03:51:21.175Z,96.10
2017-08-01T03:53:48.692Z,96.00
2017-08-01T03:56:16.194Z,95.60
2017-08-01T03:58:43.693Z,95.30
2017-08-01T04:01:11.312Z,95.20
2017-08-01T04:03:39.068Z,95.30
2017-08-01T04:06:07.619Z,95.20
2017-08-01T04:08:35.231Z,94.70
2017-08-01T04:11:02.763Z,94.60
2017-08-01T04:13:30.278Z,94.60
2017-08-01T04:15:57.839Z,95.00
2017-08-01T04:18:25.402Z,95.20
2017-08-01T04:20:53.004Z,95.30
2017-08-01T04:23:20.560Z,95.30
2017-08-01T04:25:48.071Z,94.80
2017-08-01T04:28:15.597Z,94.90
2017-08-01T04:30:43.138Z,95.80
2017-08-01T04:33:10.632Z,95.50
2017-08-01T04:35:38.164Z,95.60
2017-08-01T04:38:05.749Z,95.10
2017-08-01T04:40:33.295Z,95.20
2017-08-01T04:43:00.775Z,95.40
2017-08-01T04:45:28.339Z,95.00
2017-08-01T04:47:55.836Z,95.20
2017-08-01T04:50:24.115Z,96.10
2017-08-01T04:52:51.612Z,96.00
2017-08-01T04:55:19.337Z,96.10
2017-08-01T04:57:46.910Z,96.20
2017-08-01T05:00:14.420Z,96.60
2017-08-01T05:02:41.903Z,96.80
2017-08-01T05:05:09.413Z,97.10
2017-08-01T05:07:36.910Z,97.10
2017-08-01T05:10:04.545Z,97.00
2017-08-01T05:12:32.045Z,96.60
2017-08-01T05:14:59.546Z,96.90
2017-08-01T05:17:27.023Z,97.00
2017-08-01T05:19:54.572Z,96.70
2017-08-01T05:22:22.084Z,96.30
2017-08-01T05:24:49.657Z,95.90
2017-08-01T05:27:17.172Z,95.80
2017-08-01T05:29:44.677Z,95.50
2017-08-01T05:32:12.182Z,95.30
2017-08-01T05:34:39.651Z,95.40
2017-08-01T05:37:07.189Z,94.80
2017-08-01T05:39:34.696Z,95.20
2017-08-01T05:42:02.211Z,95.20
2017-08-01T05:44:29.702Z,94.90
2017-08-01T05:46:57.265Z,95.00
2017-08-01T05:49:24.746Z,95.10
2017-08-01T05:51:52.280Z,95.10
2017-08-01T05:54:19.795Z,95.10
2017-08-01T05:56:47.316Z,95.20
2017-08-01T05:59:14.909Z,95.40
2017-08-01T06:01:42.446Z,95.50
2017-08-01T06:04:10.716Z,96.20
2017-08-01T06:06:38.233Z,95.90
2017-08-01T06:09:05.760Z,95.60
2017-08-01T06:11:33.286Z,95.40
2017-08-01T06:14:00.820Z,95.30
2017-08-01T06:16:28.638Z,95.00
2017-08-01T06:18:56.277Z,94.90
2017-08-01T06:21:24.543Z,94.50
2017-08-01T06:23:52.806Z,94.50
2017-08-01T06:26:21.513Z,94.50
2017-08-01T06:28:49.063Z,94.40
2017-08-01T06:31:16.629Z,94.50
2017-08-01T06:33:44.137Z,94.50
2017-08-01T06:36:11.796Z,94.00
2017-08-01T06:38:39.313Z,94.00
2017-08-01T06:41:06.828Z,94.10
2017-08-01T06:43:35.121Z,94.00
2017-08-01T06:46:02.940Z,93.90
2017-08-01T06:48:31.216Z,92.90
2017-08-01T06:50:58.711Z,92.90
2017-08-01T06:53:26.202Z,92.40
2017-08-01T06:55:53.698Z,91.90
2017-08-01T06:58:21.257Z,92.00
2017-08-01T07:00:48.740Z,92.20
2017-08-01T07:03:16.256Z,91.90
2017-08-01T07:05:44.518Z,91.90
2017-08-01T07:08:12.043Z,91.60
2017-08-01T07:10:39.529Z,91.40
2017-08-01T07:13:07.062Z,91.90
2017-08-01T07:15:34.561Z,92.80
2017-08-01T07:18:02.086Z,92.90
2017-08-01T07:20:29.570Z,92.80
2017-08-01T07:22:57.074Z,92.40
2017-08-01T07:25:24.560Z,91.10
2017-08-01T07:27:52.842Z,91.20
2017-08-01T07:30:20.337Z,91.20
2017-08-01T07:32:47.839Z,91.00
2017-08-01T07:35:15.352Z,91.40
2017-08-01T07:37:42.853Z,90.90
2017-08-01T07:40:10.369Z,90.90
2017-08-01T07:42:37.851Z,91.10
2017-08-01T07:45:05.351Z,90.90
2017-08-01T07:47:32.826Z,91.60
2017-08-01T07:50:00.327Z,91.50
2017-08-01T07:52:27.803Z,91.80
2017-08-01T07:54:55.308Z,91.70
2017-08-01T07:57:22.783Z,92.10
2017-08-01T07:59:50.283Z,92.20
2017-08-01T08:02:17.780Z,92.70
2017-08-01T08:04:45.297Z,91.50
2017-08-01T08:07:12.781Z,91.30
2017-08-01T08:09:40.279Z,91.00
2017-08-01T08:12:07.765Z,90.70
2017-08-01T08:14:35.271Z,90.10
2017-08-01T08:17:02.773Z,89.80
2017-08-01T08:19:30.270Z,90.10
2017-08-01T08:21:57.760Z,90.00
2017-08-01T08:24:25.247Z,89.70
2017-08-01T08:26:52.724Z,90.50
2017-08-01T08:29:20.257Z,90.10
2017-08-01T08:31:47.797Z,89.60
2017-08-01T08:34:15.269Z,88.10
2017-08-01T08:36:43.546Z,87.90
2017-08-01T08:39:11.064Z,87.80
2017-08-01T08:41:39.327Z,88.10
2017-08-01T08:44:07.567Z,88.30
2017-08-01T08:46:35.063Z,88.20
2017-08-01T08:49:02.556Z,88.10
2017-08-01T08:51:30.058Z,87.80
2017-08-01T08:53:57.552Z,86.00
2017-08-01T08:56:25.058Z,84.90
2017-08-01T08:58:52.544Z,83.40
2017-08-01T09:01:20.044Z,82.00
2017-08-01T09:03:47.520Z,79.80
2017-08-01T09:06:15.022Z,76.90
2017-08-01T09:08:42.507Z,74.50
2017-08-01T09:11:10.775Z,71.50
2017-08-01T09:13:39.039Z,68.90
2017-08-01T09:16:06.548Z,68.80
2017-08-01T09:18:34.031Z,68.50
2017-08-01T09:21:01.537Z,69.00
2017-08-01T09:23:29.018Z,68.50
2017-08-01T09:25:56.521Z,67.80
2017-08-01T09:28:23.999Z,66.60
2017-08-01T09:30:51.496Z,72.00
2017-08-01T09:33:18.972Z,68.40
2017-08-01T09:35:47.217Z,69.20
2017-08-01T09:38:14.724Z,69.30
2017-08-01T09:40:42.199Z,70.70
2017-08-01T09:43:09.703Z,68.10
2017-08-01T09:45:37.189Z,69.80
2017-08-01T09:48:04.696Z,66.80
2017-08-01T09:50:32.173Z,63.70
2017-08-01T09:53:00.444Z,63.00
2017-08-01T09:55:28.695Z,66.50
2017-08-01T09:57:56.195Z,66.50
2017-08-01T10:00:23.671Z,66.90
2017-08-01T10:02:51.183Z,72.10
2017-08-01T10:05:18.681Z,71.10
2017-08-01T10:07:46.242Z,70.40
2017-08-01T10:10:13.812Z,64.90
2017-08-01T10:12:41.315Z,66.40
2017-08-01T10:15:08.791Z,65.80
2017-08-01T10:17:36.298Z,68.00
2017-08-01T10:20:04.544Z,59.90
2017-08-01T10:22:32.811Z,54.80
2017-08-01T10:25:01.060Z,54.20
2017-08-01T10:27:28.563Z,54.10
2017-08-01T10:29:56.045Z,53.80
2017-08-01T10:32:23.545Z,54.80
2017-08-01T10:34:51.031Z,53.50
2017-08-01T10:37:18.520Z,52.70
2017-08-01T10:39:46.019Z,48.10
2017-08-01T10:42:14.261Z,54.10
2017-08-01T10:44:41.763Z,54.00
2017-08-01T10:47:09.253Z,53.70
2017-08-01T10:49:36.751Z,52.50
2017-08-01T10:52:04.229Z,55.90
2017-08-01T10:54:31.723Z,58.40
2017-08-01T10:56:59.206Z,59.60
2017-08-01T10:59:26.707Z,57.30
2017-08-01T11:01:54.190Z,61.10
2017-08-01T11:04:21.693Z,62.40
2017-08-01T11:06:49.167Z,62.70
2017-08-01T11:09:16.659Z,63.20
2017-08-01T11:11:44.908Z,64.10
2017-08-01T11:14:12.413Z,64.00
2017-08-01T11:16:39.891Z,65.00
2017-08-01T11:19:08.152Z,65.40
2017-08-01T11:21:36.408Z,64.60
2017-08-01T11:24:04.667Z,67.10
2017-08-01T11:26:32.916Z,67.10
2017-08-01T11:29:00.407Z,66.40
2017-08-01T11:31:27.882Z,66.30
2017-08-01T11:33:55.352Z,66.30
2017-08-01T11:36:23.623Z,66.20
2017-08-01T11:38:51.867Z,66.50
2017-08-01T11:41:19.368Z,66.40
2017-08-01T11:43:46.842Z,65.80
2017-08-01T11:46:14.665Z,66.70
2017-08-01T11:48:42.157Z,67.00
2017-08-01T11:51:10.416Z,67.30
2017-08-01T11:53:37.890Z,67.10
2017-08-01T11:56:05.388Z,67.50
2017-08-01T11:58:33.717Z,68.20
2017-08-01T12:01:01.212Z,68.10
2017-08-01T12:03:29.464Z,67.20
2017-08-01T12:05:56.972Z,67.10
2017-08-01T12:08:24.697Z,65.50
2017-08-01T12:10:52.190Z,66.80
2017-08-01T12:13:20.436Z,65.80
2017-08-01T12:15:47.956Z,65.70
2017-08-01T12:18:15.439Z,65.00
2017-08-01T12:20:43.717Z,62.30
2017-08-01T12:23:11.204Z,62.20
2017-08-01T12:25:38.728Z,60.50
2017-08-01T12:28:06.216Z,59.90
2017-08-01T12:30:33.716Z,60.80
2017-08-01T12:33:01.197Z,61.00
2017-08-01T12:35:28.703Z,60.30
2017-08-01T12:37:56.183Z,61.50
2017-08-01T12:40:23.675Z,61.70
2017-08-01T12:42:51.174Z,61.90
2017-08-01T12:45:18.663Z,61.60
2017-08-01T12:47:46.163Z,62.30
2017-08-01T12:50:14.412Z,62.60
2017-08-01T12:52:41.908Z,62.50
2017-08-01T12:55:09.398Z,62.50
2017-08-01T12:57:36.903Z,60.60
2017-08-01T13:00:04.388Z,61.40
2017-08-01T13:02:31.897Z,61.50
2017-08-01T13:04:59.480Z,62.50
2017-08-01T13:07:26.987Z,63.20
2017-08-01T13:09:54.468Z,63.80
2017-08-01T13:12:22.730Z,65.50
2017-08-01T13:14:50.999Z,65.10
2017-08-01T13:17:18.499Z,65.00
2017-08-01T13:19:46.128Z,65.70
2017-08-01T13:22:13.619Z,66.40
2017-08-01T13:24:41.104Z,66.90
2017-08-01T13:27:08.599Z,67.10
2017-08-01T13:29:36.847Z,68.20
2017-08-01T13:32:04.351Z,68.60
2017-08-01T13:34:31.836Z,69.50
2017-08-01T13:36:59.320Z,70.20
2017-08-01T13:39:26.835Z,71.50
2017-08-01T13:41:55.147Z,73.00
2017-08-01T13:44:22.640Z,72.90
2017-08-01T13:46:50.892Z,75.40
2017-08-01T13:49:19.160Z,75.70
2017-08-01T13:51:46.652Z,75.60
2017-08-01T13:54:14.173Z,76.50
2017-08-01T13:56:41.676Z,76.80
2017-08-01T13:59:09.173Z,77.40
2017-08-01T14:01:36.672Z,78.20
2017-08-01T14:04:04.258Z,79.10
2017-08-01T14:06:31.771Z,79.50
2017-08-01T14:08:59.296Z,79.90
2017-08-01T14:11:27.552Z,85.30
2017-08-01T14:13:55.091Z,85.30
2017-08-01T14:16:22.575Z,86.30
2017-08-01T14:18:50.071Z,87.70
2017-08-01T14:21:17.552Z,86.20
2017-08-01T14:23:45.057Z,87.60
2017-08-01T14:26:12.539Z,90.20
2017-08-01T14:28:40.032Z,90.50
2017-08-01T14:31:07.515Z,90.90
2017-08-01T14:33:35.041Z,91.90
2017-08-01T14:36:02.587Z,92.40
2017-08-01T14:38:30.093Z,93.10
2017-08-01T14:40:57.644Z,93.40
2017-08-01T14:43:25.128Z,93.60
2017-08-01T14:45:52.639Z,92.50
2017-08-01T14:48:20.135Z,92.40
2017-08-01T14:50:47.675Z,92.50
2017-08-01T14:53:15.173Z,92.90
2017-08-01T14:55:42.683Z,92.30
2017-08-01T14:58:10.159Z,91.50
2017-08-01T15:00:37.662Z,92.00
2017-08-01T15:03:05.144Z,92.30
2017-08-01T15:05:32.656Z,92.00
2017-08-01T15:08:00.162Z,92.10
2017-08-01T15:10:27.702Z,92.40
2017-08-01T15:12:55.212Z,92.50
2017-08-01T15:15:22.718Z,93.20
2017-08-01T15:17:50.195Z,93.40
2017-08-01T15:20:17.701Z,92.70
2017-08-01T15:22:45.478Z,92.60
2017-08-01T15:25:13.012Z,92.40
2017-08-01T15:27:40.520Z,93.70
2017-08-01T15:30:09.092Z,94.30
2017-08-01T15:32:36.588Z,93.40
2017-08-01T15:35:04.120Z,93.50
2017-08-01T15:37:33.342Z,93.30
2017-08-01T15:40:00.856Z,93.90
2017-08-01T15:42:28.368Z,94.50
2017-08-01T15:44:55.846Z,94.40
2017-08-01T15:47:23.385Z,94.50
2017-08-01T15:49:50.876Z,94.60
2017-08-01T15:52:18.391Z,94.40
2017-08-01T15:54:45.910Z,94.30
2017-08-01T15:57:13.416Z,94.00
2017-08-01T15:59:40.904Z,93.70
2017-08-01T16:02:08.483Z,93.90
2017-08-01T16:04:35.972Z,93.50
2017-08-01T16:07:03.475Z,93.20
2017-08-01T16:09:30.952Z,93.00
2017-08-01T16:11:58.452Z,92.40
2017-08-01T16:14:25.928Z,92.30
2017-08-01T16:16:53.429Z,92.00
2017-08-01T16:19:20.919Z,91.90
2017-08-01T16:21:48.429Z,91.70
2017-08-01T16:24:15.925Z,91.80
2017-08-01T16:26:43.486Z,91.90
2017-08-01T16:29:11.003Z,92.10
2017-08-01T16:31:38.534Z,92.70
2017-08-01T16:34:06.032Z,92.50
2017-08-01T16:36:33.580Z,92.30
2017-08-01T16:39:01.071Z,92.30
2017-08-01T16:41:28.562Z,92.10
2017-08-01T16:43:56.096Z,92.10
2017-08-01T16:46:23.586Z,91.60
2017-08-01T16:48:51.099Z,91.70
2017-08-01T16:51:18.597Z,91.60
2017-08-01T16:53:46.254Z,91.80
2017-08-01T16:56:14.532Z,91.30
2017-08-01T16:58:42.041Z,91.30
2017-08-01T17:01:09.557Z,91.40
2017-08-01T17:03:37.097Z,92.20
2017-08-01T17:06:04.614Z,92.90
2017-08-01T17:08:32.144Z,93.30
2017-08-01T17:10:59.658Z,93.50
2017-08-01T17:13:27.197Z,93.00
2017-08-01T17:15:54.703Z,92.40
2017-08-01T17:18:22.297Z,91.90
2017-08-01T17:20:49.800Z,91.70
2017-08-01T17:23:17.343Z,91.80
2017-08-01T17:25:44.945Z,92.00
2017-08-01T17:28:12.530Z,91.70
2017-08-01T17:30:40.034Z,91.50
2017-08-01T17:33:07.576Z,91.10
2017-08-01T17:35:35.076Z,91.00
2017-08-01T17:38:02.598Z,91.30
2017-08-01T17:40:30.115Z,91.30
2017-08-01T17:42:57.630Z,91.40
2017-08-01T17:45:25.183Z,90.80
2017-08-01T17:47:52.684Z,90.70
2017-08-01T17:50:20.200Z,90.40
2017-08-01T17:52:47.689Z,90.00
2017-08-01T17:55:15.207Z,90.20
2017-08-01T17:57:42.717Z,90.00
2017-08-01T18:00:10.240Z,90.20
2017-08-01T18:02:37.719Z,90.00
2017-08-01T18:05:05.291Z,90.20
2017-08-01T18:07:32.838Z,91.10
2017-08-01T18:10:00.344Z,91.80
2017-08-01T18:12:27.871Z,92.20
2017-08-01T18:14:55.396Z,91.70
2017-08-01T18:17:23.640Z,93.00
2017-08-01T18:19:51.912Z,92.90
2017-08-01T18:22:20.191Z,92.40
2017-08-01T18:24:47.726Z,92.40
2017-08-01T18:27:15.282Z,91.90
2017-08-01T18:29:42.792Z,91.20
2017-08-01T18:32:10.282Z,91.10
2017-08-01T18:34:37.800Z,90.60
2017-08-01T18:37:05.299Z,91.00
2017-08-01T18:39:32.836Z,91.00
2017-08-01T18:42:00.336Z,90.70
2017-08-01T18:44:27.873Z,90.40
2017-08-01T18:46:55.392Z,90.20
2017-08-01T18:49:23.635Z,90.60
2017-08-01T18:51:51.166Z,90.50
2017-08-01T18:54:18.665Z,90.40
2017-08-01T18:56:46.213Z,90.40
2017-08-01T18:59:14.193Z,90.20
2017-08-01T19:01:41.968Z,90.30
2017-08-01T19:04:09.463Z,90.00
2017-08-01T19:06:37.022Z,90.00
2017-08-01T19:09:04.813Z,90.30
2017-08-01T19:11:33.521Z,90.00
2017-08-01T19:14:01.380Z,90.80
2017-08-01T19:16:28.987Z,92.70
2017-08-01T19:18:56.517Z,93.30
2017-08-01T19:21:24.889Z,93.30
2017-08-01T19:23:52.427Z,93.10
2017-08-01T19:26:20.042Z,92.80
2017-08-01T19:28:48.455Z,93.40
2017-08-01T19:31:16.101Z,94.10
2017-08-01T19:33:43.888Z,94.40
2017-08-01T19:36:11.436Z,93.80
2017-08-01T19:38:38.928Z,93.20
2017-08-01T19:41:06.456Z,93.40
2017-08-01T19:43:33.952Z,93.10
2017-08-01T19:46:01.433Z,93.00
2017-08-01T19:48:28.928Z,93.30
2017-08-01T19:50:56.414Z,94.10
2017-08-01T19:53:23.931Z,94.40
2017-08-01T19:55:51.412Z,94.70
2017-08-01T19:58:18.919Z,94.60
2017-08-01T20:00:46.393Z,94.60
2017-08-01T20:03:13.895Z,94.10
2017-08-01T20:05:41.379Z,94.20
2017-08-01T20:08:08.886Z,94.20
2017-08-01T20:10:36.366Z,94.10
2017-08-01T20:13:03.877Z,93.70
2017-08-01T20:15:31.357Z,93.40
2017-08-01T20:17:58.865Z,93.10
2017-08-01T20:20:26.352Z,93.20
2017-08-01T20:22:54.793Z,93.20
2017-08-01T20:25:23.067Z,92.90
2017-08-01T20:27:50.566Z,92.90
2017-08-01T20:30:18.050Z,92.80
2017-08-01T20:32:45.597Z,92.50
2017-08-01T20:35:13.083Z,93.20
2017-08-01T20:37:41.453Z,93.90
2017-08-01T20:40:08.973Z,94.80
2017-08-01T20:42:36.543Z,95.40
2017-08-01T20:45:04.023Z,95.40
2017-08-01T20:47:31.504Z,95.20
2017-08-01T20:49:59.008Z,95.50
2017-08-01T20:52:26.518Z,95.90
2017-08-01T20:54:54.012Z,95.80
2017-08-01T20:57:22.258Z,95.40
2017-08-01T20:59:49.768Z,95.40
2017-08-01T21:02:17.264Z,95.30
2017-08-01T21:04:45.536Z,96.20
2017-08-01T21:07:13.016Z,96.10
2017-08-01T21:09:40.515Z,95.90
2017-08-01T21:12:07.991Z,96.20
2017-08-01T21:14:35.499Z,96.20
2017-08-01T21:17:02.977Z,96.10
2017-08-01T21:19:30.479Z,95.60
2017-08-01T21:21:58.727Z,94.90
2017-08-01T21:24:27.011Z,94.80
2017-08-01T21:26:54.492Z,94.70
2017-08-01T21:29:22.000Z,94.40
2017-08-01T21:31:49.483Z,94.30
2017-08-01T21:34:16.981Z,94.10
2017-08-01T21:36:44.473Z,93.90
2017-08-01T21:39:11.980Z,93.90
2017-08-01T21:41:39.472Z,93.70
2017-08-01T21:44:06.976Z,93.60
2017-08-01T21:46:34.455Z,93.30
2017-08-01T21:49:01.940Z,93.50
2017-08-01T21:51:29.435Z,93.40
2017-08-01T21:53:56.913Z,93.40
2017-08-01T21:56:24.429Z,93.50
2017-08-01T21:58:52.685Z,93.60
2017-08-01T22:01:20.195Z,93.20
2017-08-01T22:03:47.731Z,93.10
2017-08-01T22:06:15.279Z,93.40
2017-08-01T22:08:42.757Z,93.70
2017-08-01T22:11:10.264Z,94.30
2017-08-01T22:13:37.747Z,94.40
2017-08-01T22:16:05.249Z,94.20
2017-08-01T22:18:32.732Z,94.00
2017-08-01T22:21:00.233Z,94.00
2017-08-01T22:23:27.708Z,93.80
2017-08-01T22:25:55.208Z,93.80
2017-08-01T22:28:22.685Z,93.70
2017-08-01T22:30:50.309Z,94.00
2017-08-01T22:33:17.783Z,94.70
2017-08-01T22:35:45.302Z,94.60
2017-08-01T22:38:12.787Z,94.50
2017-08-01T22:40:41.055Z,94.00
2017-08-01T22:43:08.528Z,93.90
2017-08-01T22:45:36.031Z,94.30
2017-08-01T22:48:03.511Z,94.30
2017-08-01T22:50:31.016Z,94.40
2017-08-01T22:52:59.260Z,94.90
2017-08-01T22:55:26.732Z,94.80
2017-08-01T22:57:54.237Z,95.10
2017-08-01T23:00:21.720Z,95.10
2017-08-01T23:02:49.237Z,95.10
2017-08-01T23:05:17.484Z,95.30
2017-08-01T23:07:44.980Z,95.30
2017-08-01T23:10:12.461Z,94.70
2017-08-01T23:12:39.951Z,94.40
2017-08-01T23:15:07.420Z,94.70
2017-08-01T23:17:34.911Z,94.70
2017-08-01T23:20:03.167Z,94.80
2017-08-01T23:22:31.432Z,94.70
2017-08-01T23:24:59.676Z,94.90
2017-08-01T23:27:27.175Z,94.90
2017-08-01T23:29:54.657Z,94.80
2017-08-01T23:32:22.169Z,94.70
2017-08-01T23:34:49.660Z,94.40
2017-08-01T23:37:17.927Z,94.10
2017-08-01T23:39:45.440Z,94.00
2017-08-01T23:42:12.931Z,94.30
2017-08-01T23:44:40.411Z,94.40
2017-08-01T23:47:07.907Z,94.50
2017-08-01T23:49:35.383Z,94.50
2017-08-01T23:52:02.879Z,94.40
2017-08-01T23:54:31.123Z,94.40
2017-08-01T23:56:58.624Z,94.10
2017-08-01T23:59:26.103Z,94.10
